sensor_id;sensor_type;location;lat;lon;timestamp;P1;durP1;ratioP1;P2;durP2;ratioP2
68989;SDS011;56046;47.270;11.368;2024-01-07T00:00:47;13.40;;;6.63;;
68989;SDS011;56046;47.270;11.368;2024-01-07T00:03:12;11.77;;;6.57;;
68989;SDS011;56046;47.270;11.368;2024-01-07T00:05:37;13.40;;;6.33;;
68989;SDS011;56046;47.270;11.368;2024-01-07T00:08:03;11.82;;;6.60;;
68989;SDS011;56046;47.270;11.368;2024-01-07T00:10:28;13.38;;;6.05;;
68989;SDS011;56046;47.270;11.368;2024-01-07T00:12:53;12.53;;;6.47;;
68989;SDS011;56046;47.270;11.368;2024-01-07T00:15:18;13.13;;;6.17;;
68989;SDS011;56046;47.270;11.368;2024-01-07T00:17:44;12.50;;;6.47;;
68989;SDS011;56046;47.270;11.368;2024-01-07T00:20:09;13.70;;;7.33;;
68989;SDS011;56046;47.270;11.368;2024-01-07T00:22:35;14.38;;;7.10;;
68989;SDS011;56046;47.270;11.368;2024-01-07T00:25:00;15.20;;;7.17;;
68989;SDS011;56046;47.270;11.368;2024-01-07T00:27:26;19.37;;;8.20;;
68989;SDS011;56046;47.270;11.368;2024-01-07T00:29:51;18.27;;;7.97;;
68989;SDS011;56046;47.270;11.368;2024-01-07T00:32:16;15.87;;;7.43;;
68989;SDS011;56046;47.270;11.368;2024-01-07T00:34:41;15.00;;;7.10;;
68989;SDS011;56046;47.270;11.368;2024-01-07T00:37:07;12.87;;;6.57;;
68989;SDS011;56046;47.270;11.368;2024-01-07T00:39:32;13.47;;;6.30;;
68989;SDS011;56046;47.270;11.368;2024-01-07T00:41:57;11.17;;;5.47;;
68989;SDS011;56046;47.270;11.368;2024-01-07T00:44:22;11.07;;;6.73;;
68989;SDS011;56046;47.270;11.368;2024-01-07T00:46:48;13.50;;;8.20;;
68989;SDS011;56046;47.270;11.368;2024-01-07T00:49:13;14.93;;;8.17;;
68989;SDS011;56046;47.270;11.368;2024-01-07T00:51:38;14.93;;;8.63;;
68989;SDS011;56046;47.270;11.368;2024-01-07T00:54:03;14.47;;;7.73;;
68989;SDS011;56046;47.270;11.368;2024-01-07T00:56:28;16.83;;;9.37;;
68989;SDS011;56046;47.270;11.368;2024-01-07T00:58:54;15.40;;;8.00;;
68989;SDS011;56046;47.270;11.368;2024-01-07T01:01:20;14.97;;;8.83;;
68989;SDS011;56046;47.270;11.368;2024-01-07T01:03:45;13.90;;;7.40;;
68989;SDS011;56046;47.270;11.368;2024-01-07T01:06:11;12.67;;;7.37;;
68989;SDS011;56046;47.270;11.368;2024-01-07T01:08:36;12.88;;;6.80;;
68989;SDS011;56046;47.270;11.368;2024-01-07T01:11:01;11.27;;;5.77;;
68989;SDS011;56046;47.270;11.368;2024-01-07T01:13:27;11.90;;;6.73;;
68989;SDS011;56046;47.270;11.368;2024-01-07T01:15:52;10.60;;;5.53;;
68989;SDS011;56046;47.270;11.368;2024-01-07T01:18:17;9.20;;;5.23;;
68989;SDS011;56046;47.270;11.368;2024-01-07T01:20:43;10.47;;;5.63;;
68989;SDS011;56046;47.270;11.368;2024-01-07T01:23:08;10.83;;;5.93;;
68989;SDS011;56046;47.270;11.368;2024-01-07T01:25:33;13.63;;;5.27;;
68989;SDS011;56046;47.270;11.368;2024-01-07T01:28:00;10.48;;;5.15;;
68989;SDS011;56046;47.270;11.368;2024-01-07T01:30:25;9.03;;;5.30;;
68989;SDS011;56046;47.270;11.368;2024-01-07T01:32:52;9.68;;;5.20;;
68989;SDS011;56046;47.270;11.368;2024-01-07T01:35:17;9.33;;;5.70;;
68989;SDS011;56046;47.270;11.368;2024-01-07T01:37:43;10.93;;;5.53;;
68989;SDS011;56046;47.270;11.368;2024-01-07T01:40:08;10.33;;;5.53;;
68989;SDS011;56046;47.270;11.368;2024-01-07T01:42:33;9.97;;;5.10;;
68989;SDS011;56046;47.270;11.368;2024-01-07T01:44:59;9.50;;;5.20;;
68989;SDS011;56046;47.270;11.368;2024-01-07T01:47:27;10.75;;;5.47;;
68989;SDS011;56046;47.270;11.368;2024-01-07T01:49:52;10.30;;;5.47;;
68989;SDS011;56046;47.270;11.368;2024-01-07T01:52:17;9.53;;;5.40;;
68989;SDS011;56046;47.270;11.368;2024-01-07T01:54:42;10.02;;;5.47;;
68989;SDS011;56046;47.270;11.368;2024-01-07T01:57:09;9.97;;;5.47;;
68989;SDS011;56046;47.270;11.368;2024-01-07T01:59:38;10.68;;;5.63;;
68989;SDS011;56046;47.270;11.368;2024-01-07T02:02:04;11.93;;;5.80;;
68989;SDS011;56046;47.270;11.368;2024-01-07T02:04:29;11.67;;;5.70;;
68989;SDS011;56046;47.270;11.368;2024-01-07T02:06:54;11.13;;;5.73;;
68989;SDS011;56046;47.270;11.368;2024-01-07T02:09:19;9.80;;;5.17;;
68989;SDS011;56046;47.270;11.368;2024-01-07T02:11:59;10.40;;;5.60;;
68989;SDS011;56046;47.270;11.368;2024-01-07T02:14:24;10.05;;;5.65;;
68989;SDS011;56046;47.270;11.368;2024-01-07T02:16:50;10.73;;;6.03;;
68989;SDS011;56046;47.270;11.368;2024-01-07T02:19:15;10.03;;;5.73;;
68989;SDS011;56046;47.270;11.368;2024-01-07T02:21:40;10.37;;;5.27;;
68989;SDS011;56046;47.270;11.368;2024-01-07T02:24:07;9.20;;;5.03;;
68989;SDS011;56046;47.270;11.368;2024-01-07T02:26:39;10.15;;;5.63;;
68989;SDS011;56046;47.270;11.368;2024-01-07T02:29:05;8.30;;;4.83;;
68989;SDS011;56046;47.270;11.368;2024-01-07T02:31:30;10.23;;;5.20;;
68989;SDS011;56046;47.270;11.368;2024-01-07T02:33:55;9.40;;;5.13;;
68989;SDS011;56046;47.270;11.368;2024-01-07T02:36:20;9.77;;;5.13;;
68989;SDS011;56046;47.270;11.368;2024-01-07T02:38:46;9.10;;;5.37;;
68989;SDS011;56046;47.270;11.368;2024-01-07T02:41:11;10.00;;;5.00;;
68989;SDS011;56046;47.270;11.368;2024-01-07T02:43:36;8.97;;;4.53;;
68989;SDS011;56046;47.270;11.368;2024-01-07T02:46:01;9.70;;;4.87;;
68989;SDS011;56046;47.270;11.368;2024-01-07T02:48:27;10.00;;;5.03;;
68989;SDS011;56046;47.270;11.368;2024-01-07T02:50:52;10.23;;;4.93;;
68989;SDS011;56046;47.270;11.368;2024-01-07T02:53:17;8.83;;;5.00;;
68989;SDS011;56046;47.270;11.368;2024-01-07T02:55:42;11.57;;;4.93;;
68989;SDS011;56046;47.270;11.368;2024-01-07T02:58:08;9.10;;;4.63;;
68989;SDS011;56046;47.270;11.368;2024-01-07T03:00:33;10.13;;;4.73;;
68989;SDS011;56046;47.270;11.368;2024-01-07T03:02:58;12.37;;;5.47;;
68989;SDS011;56046;47.270;11.368;2024-01-07T03:05:23;11.00;;;5.33;;
68989;SDS011;56046;47.270;11.368;2024-01-07T03:07:49;11.35;;;5.80;;
68989;SDS011;56046;47.270;11.368;2024-01-07T03:10:14;9.93;;;5.10;;
68989;SDS011;56046;47.270;11.368;2024-01-07T03:12:40;8.85;;;4.72;;
68989;SDS011;56046;47.270;11.368;2024-01-07T03:15:05;8.57;;;4.43;;
68989;SDS011;56046;47.270;11.368;2024-01-07T03:17:32;8.80;;;4.57;;
68989;SDS011;56046;47.270;11.368;2024-01-07T03:19:57;8.30;;;4.60;;
68989;SDS011;56046;47.270;11.368;2024-01-07T03:22:23;8.27;;;4.10;;
68989;SDS011;56046;47.270;11.368;2024-01-07T03:24:48;9.27;;;4.60;;
68989;SDS011;56046;47.270;11.368;2024-01-07T03:27:13;8.00;;;4.30;;
68989;SDS011;56046;47.270;11.368;2024-01-07T03:29:39;8.27;;;4.23;;
68989;SDS011;56046;47.270;11.368;2024-01-07T03:32:04;7.55;;;3.92;;
68989;SDS011;56046;47.270;11.368;2024-01-07T03:34:30;9.07;;;4.60;;
68989;SDS011;56046;47.270;11.368;2024-01-07T03:36:55;8.40;;;4.70;;
68989;SDS011;56046;47.270;11.368;2024-01-07T03:39:20;9.73;;;4.47;;
68989;SDS011;56046;47.270;11.368;2024-01-07T03:41:45;11.03;;;5.00;;
68989;SDS011;56046;47.270;11.368;2024-01-07T03:44:11;8.63;;;4.50;;
68989;SDS011;56046;47.270;11.368;2024-01-07T03:46:36;9.03;;;5.20;;
68989;SDS011;56046;47.270;11.368;2024-01-07T03:49:01;10.87;;;4.80;;
68989;SDS011;56046;47.270;11.368;2024-01-07T03:51:26;9.47;;;5.07;;
68989;SDS011;56046;47.270;11.368;2024-01-07T03:53:52;10.37;;;4.93;;
68989;SDS011;56046;47.270;11.368;2024-01-07T03:56:17;10.30;;;5.60;;
68989;SDS011;56046;47.270;11.368;2024-01-07T03:58:42;9.90;;;5.17;;
68989;SDS011;56046;47.270;11.368;2024-01-07T04:01:07;10.27;;;5.40;;
68989;SDS011;56046;47.270;11.368;2024-01-07T04:03:33;11.53;;;5.77;;
68989;SDS011;56046;47.270;11.368;2024-01-07T04:05:58;11.07;;;5.17;;
68989;SDS011;56046;47.270;11.368;2024-01-07T04:08:23;10.50;;;5.43;;
68989;SDS011;56046;47.270;11.368;2024-01-07T04:10:48;10.63;;;5.50;;
68989;SDS011;56046;47.270;11.368;2024-01-07T04:13:14;8.97;;;4.83;;
68989;SDS011;56046;47.270;11.368;2024-01-07T04:15:39;9.90;;;4.93;;
68989;SDS011;56046;47.270;11.368;2024-01-07T04:18:04;11.97;;;5.67;;
68989;SDS011;56046;47.270;11.368;2024-01-07T04:20:30;10.70;;;5.83;;
68989;SDS011;56046;47.270;11.368;2024-01-07T04:22:56;11.90;;;6.85;;
68989;SDS011;56046;47.270;11.368;2024-01-07T04:25:21;13.30;;;6.47;;
68989;SDS011;56046;47.270;11.368;2024-01-07T04:27:47;10.63;;;5.97;;
68989;SDS011;56046;47.270;11.368;2024-01-07T04:30:12;10.33;;;5.27;;
68989;SDS011;56046;47.270;11.368;2024-01-07T04:32:37;11.13;;;5.80;;
68989;SDS011;56046;47.270;11.368;2024-01-07T04:35:03;11.40;;;6.10;;
68989;SDS011;56046;47.270;11.368;2024-01-07T04:37:28;10.77;;;5.97;;
68989;SDS011;56046;47.270;11.368;2024-01-07T04:39:53;11.50;;;5.83;;
68989;SDS011;56046;47.270;11.368;2024-01-07T04:42:18;12.00;;;5.87;;
68989;SDS011;56046;47.270;11.368;2024-01-07T04:44:44;10.87;;;5.37;;
68989;SDS011;56046;47.270;11.368;2024-01-07T04:47:25;13.97;;;6.40;;
68989;SDS011;56046;47.270;11.368;2024-01-07T04:49:51;13.02;;;6.40;;
68989;SDS011;56046;47.270;11.368;2024-01-07T04:52:16;11.97;;;5.80;;
68989;SDS011;56046;47.270;11.368;2024-01-07T04:54:42;12.30;;;6.20;;
68989;SDS011;56046;47.270;11.368;2024-01-07T04:57:07;11.25;;;5.15;;
68989;SDS011;56046;47.270;11.368;2024-01-07T04:59:33;12.20;;;5.67;;
68989;SDS011;56046;47.270;11.368;2024-01-07T05:01:58;11.00;;;5.40;;
68989;SDS011;56046;47.270;11.368;2024-01-07T05:04:23;12.60;;;6.33;;
68989;SDS011;56046;47.270;11.368;2024-01-07T05:06:49;11.50;;;6.20;;
68989;SDS011;56046;47.270;11.368;2024-01-07T05:09:15;11.30;;;5.43;;
68989;SDS011;56046;47.270;11.368;2024-01-07T05:11:40;11.37;;;5.53;;
68989;SDS011;56046;47.270;11.368;2024-01-07T05:14:05;12.70;;;6.47;;
68989;SDS011;56046;47.270;11.368;2024-01-07T05:16:30;11.03;;;6.07;;
68989;SDS011;56046;47.270;11.368;2024-01-07T05:18:56;11.00;;;5.90;;
68989;SDS011;56046;47.270;11.368;2024-01-07T05:21:21;10.93;;;5.63;;
68989;SDS011;56046;47.270;11.368;2024-01-07T05:23:46;10.60;;;5.60;;
68989;SDS011;56046;47.270;11.368;2024-01-07T05:26:11;11.53;;;5.67;;
68989;SDS011;56046;47.270;11.368;2024-01-07T05:28:37;10.33;;;5.47;;
68989;SDS011;56046;47.270;11.368;2024-01-07T05:31:02;11.87;;;5.77;;
68989;SDS011;56046;47.270;11.368;2024-01-07T05:33:27;10.90;;;5.80;;
68989;SDS011;56046;47.270;11.368;2024-01-07T05:35:52;10.67;;;5.77;;
68989;SDS011;56046;47.270;11.368;2024-01-07T05:38:18;12.40;;;5.97;;
68989;SDS011;56046;47.270;11.368;2024-01-07T05:40:43;11.83;;;6.07;;
68989;SDS011;56046;47.270;11.368;2024-01-07T05:43:08;12.83;;;6.07;;
68989;SDS011;56046;47.270;11.368;2024-01-07T05:45:33;12.80;;;6.57;;
68989;SDS011;56046;47.270;11.368;2024-01-07T05:47:59;12.27;;;6.70;;
68989;SDS011;56046;47.270;11.368;2024-01-07T05:50:24;12.03;;;5.97;;
68989;SDS011;56046;47.270;11.368;2024-01-07T05:52:49;11.17;;;5.70;;
68989;SDS011;56046;47.270;11.368;2024-01-07T05:55:14;13.03;;;5.60;;
68989;SDS011;56046;47.270;11.368;2024-01-07T05:57:40;11.20;;;5.90;;
68989;SDS011;56046;47.270;11.368;2024-01-07T06:00:05;13.07;;;6.10;;
68989;SDS011;56046;47.270;11.368;2024-01-07T06:02:30;12.68;;;6.40;;
68989;SDS011;56046;47.270;11.368;2024-01-07T06:04:56;12.57;;;6.15;;
68989;SDS011;56046;47.270;11.368;2024-01-07T06:07:21;14.33;;;6.80;;
68989;SDS011;56046;47.270;11.368;2024-01-07T06:09:46;14.10;;;7.13;;
68989;SDS011;56046;47.270;11.368;2024-01-07T06:12:12;15.87;;;7.57;;
68989;SDS011;56046;47.270;11.368;2024-01-07T06:14:37;14.63;;;6.97;;
68989;SDS011;56046;47.270;11.368;2024-01-07T06:17:03;13.45;;;6.40;;
68989;SDS011;56046;47.270;11.368;2024-01-07T06:19:29;14.13;;;6.90;;
68989;SDS011;56046;47.270;11.368;2024-01-07T06:21:54;15.83;;;8.17;;
68989;SDS011;56046;47.270;11.368;2024-01-07T06:24:20;16.52;;;7.70;;
68989;SDS011;56046;47.270;11.368;2024-01-07T06:26:45;15.17;;;7.43;;
68989;SDS011;56046;47.270;11.368;2024-01-07T06:29:10;19.33;;;9.97;;
68989;SDS011;56046;47.270;11.368;2024-01-07T06:31:35;20.30;;;11.23;;
68989;SDS011;56046;47.270;11.368;2024-01-07T06:34:01;19.67;;;10.07;;
68989;SDS011;56046;47.270;11.368;2024-01-07T06:36:26;15.70;;;8.70;;
68989;SDS011;56046;47.270;11.368;2024-01-07T06:38:51;15.83;;;7.97;;
68989;SDS011;56046;47.270;11.368;2024-01-07T06:41:16;22.33;;;11.10;;
68989;SDS011;56046;47.270;11.368;2024-01-07T06:43:42;17.97;;;9.07;;
68989;SDS011;56046;47.270;11.368;2024-01-07T06:46:07;22.53;;;11.10;;
68989;SDS011;56046;47.270;11.368;2024-01-07T06:48:32;17.60;;;9.13;;
68989;SDS011;56046;47.270;11.368;2024-01-07T06:50:58;15.53;;;7.13;;
68989;SDS011;56046;47.270;11.368;2024-01-07T06:53:23;15.03;;;6.83;;
68989;SDS011;56046;47.270;11.368;2024-01-07T06:55:48;19.58;;;10.45;;
68989;SDS011;56046;47.270;11.368;2024-01-07T06:58:14;19.37;;;10.03;;
68989;SDS011;56046;47.270;11.368;2024-01-07T07:00:39;15.90;;;7.67;;
68989;SDS011;56046;47.270;11.368;2024-01-07T07:03:04;14.80;;;7.67;;
68989;SDS011;56046;47.270;11.368;2024-01-07T07:05:30;16.07;;;8.00;;
68989;SDS011;56046;47.270;11.368;2024-01-07T07:07:55;16.80;;;8.13;;
68989;SDS011;56046;47.270;11.368;2024-01-07T07:10:21;17.00;;;8.87;;
68989;SDS011;56046;47.270;11.368;2024-01-07T07:12:46;14.93;;;8.30;;
68989;SDS011;56046;47.270;11.368;2024-01-07T07:15:11;15.87;;;8.77;;
68989;SDS011;56046;47.270;11.368;2024-01-07T07:17:37;15.60;;;8.20;;
68989;SDS011;56046;47.270;11.368;2024-01-07T07:20:03;16.88;;;8.27;;
68989;SDS011;56046;47.270;11.368;2024-01-07T07:22:28;32.25;;;12.45;;
68989;SDS011;56046;47.270;11.368;2024-01-07T07:24:54;17.20;;;9.20;;
68989;SDS011;56046;47.270;11.368;2024-01-07T07:27:19;19.73;;;11.30;;
68989;SDS011;56046;47.270;11.368;2024-01-07T07:29:44;23.87;;;13.00;;
68989;SDS011;56046;47.270;11.368;2024-01-07T07:32:09;22.53;;;11.60;;
68989;SDS011;56046;47.270;11.368;2024-01-07T07:34:35;23.20;;;12.33;;
68989;SDS011;56046;47.270;11.368;2024-01-07T07:37:00;23.77;;;12.07;;
68989;SDS011;56046;47.270;11.368;2024-01-07T07:39:25;24.77;;;12.03;;
68989;SDS011;56046;47.270;11.368;2024-01-07T07:41:51;22.75;;;11.32;;
68989;SDS011;56046;47.270;11.368;2024-01-07T07:44:16;18.95;;;10.50;;
68989;SDS011;56046;47.270;11.368;2024-01-07T07:46:42;16.75;;;8.20;;
68989;SDS011;56046;47.270;11.368;2024-01-07T07:49:08;18.10;;;9.10;;
68989;SDS011;56046;47.270;11.368;2024-01-07T07:51:33;17.73;;;9.30;;
68989;SDS011;56046;47.270;11.368;2024-01-07T07:53:58;15.27;;;7.72;;
68989;SDS011;56046;47.270;11.368;2024-01-07T07:56:23;18.08;;;9.65;;
68989;SDS011;56046;47.270;11.368;2024-01-07T07:58:49;18.85;;;10.20;;
68989;SDS011;56046;47.270;11.368;2024-01-07T08:01:14;21.38;;;11.50;;
68989;SDS011;56046;47.270;11.368;2024-01-07T08:03:39;22.08;;;11.07;;
68989;SDS011;56046;47.270;11.368;2024-01-07T08:06:05;18.50;;;10.70;;
68989;SDS011;56046;47.270;11.368;2024-01-07T08:08:30;17.70;;;10.13;;
68989;SDS011;56046;47.270;11.368;2024-01-07T08:10:55;17.63;;;9.57;;
68989;SDS011;56046;47.270;11.368;2024-01-07T08:13:20;16.50;;;7.93;;
68989;SDS011;56046;47.270;11.368;2024-01-07T08:15:46;13.10;;;7.43;;
68989;SDS011;56046;47.270;11.368;2024-01-07T08:18:11;13.63;;;7.47;;
68989;SDS011;56046;47.270;11.368;2024-01-07T08:20:36;16.70;;;7.77;;
68989;SDS011;56046;47.270;11.368;2024-01-07T08:23:02;16.33;;;9.17;;
68989;SDS011;56046;47.270;11.368;2024-01-07T08:25:27;19.57;;;10.60;;
68989;SDS011;56046;47.270;11.368;2024-01-07T08:27:52;18.67;;;10.60;;
68989;SDS011;56046;47.270;11.368;2024-01-07T08:30:17;18.17;;;9.33;;
68989;SDS011;56046;47.270;11.368;2024-01-07T08:32:43;18.03;;;10.07;;
68989;SDS011;56046;47.270;11.368;2024-01-07T08:35:08;17.77;;;9.33;;
68989;SDS011;56046;47.270;11.368;2024-01-07T08:37:34;16.65;;;9.30;;
68989;SDS011;56046;47.270;11.368;2024-01-07T08:39:59;16.60;;;10.03;;
68989;SDS011;56046;47.270;11.368;2024-01-07T08:42:25;16.40;;;8.80;;
68989;SDS011;56046;47.270;11.368;2024-01-07T08:44:50;17.17;;;9.57;;
68989;SDS011;56046;47.270;11.368;2024-01-07T08:47:15;18.43;;;10.10;;
68989;SDS011;56046;47.270;11.368;2024-01-07T08:49:40;19.10;;;8.93;;
68989;SDS011;56046;47.270;11.368;2024-01-07T08:52:06;15.13;;;7.80;;
68989;SDS011;56046;47.270;11.368;2024-01-07T08:54:31;12.85;;;6.90;;
68989;SDS011;56046;47.270;11.368;2024-01-07T08:56:58;10.80;;;6.20;;
68989;SDS011;56046;47.270;11.368;2024-01-07T08:59:23;10.50;;;6.22;;
68989;SDS011;56046;47.270;11.368;2024-01-07T09:01:49;14.10;;;6.83;;
68989;SDS011;56046;47.270;11.368;2024-01-07T09:04:14;13.30;;;6.40;;
68989;SDS011;56046;47.270;11.368;2024-01-07T09:06:41;13.10;;;6.63;;
68989;SDS011;56046;47.270;11.368;2024-01-07T09:09:06;10.80;;;6.30;;
68989;SDS011;56046;47.270;11.368;2024-01-07T09:11:33;12.77;;;6.90;;
68989;SDS011;56046;47.270;11.368;2024-01-07T09:13:59;10.43;;;6.45;;
68989;SDS011;56046;47.270;11.368;2024-01-07T09:16:24;11.55;;;5.85;;
68989;SDS011;56046;47.270;11.368;2024-01-07T09:18:50;12.23;;;6.00;;
68989;SDS011;56046;47.270;11.368;2024-01-07T09:21:16;10.67;;;5.70;;
68989;SDS011;56046;47.270;11.368;2024-01-07T09:23:41;11.10;;;5.57;;
68989;SDS011;56046;47.270;11.368;2024-01-07T09:26:07;9.90;;;5.28;;
68989;SDS011;56046;47.270;11.368;2024-01-07T09:28:32;11.27;;;5.60;;
68989;SDS011;56046;47.270;11.368;2024-01-07T09:30:57;10.30;;;5.10;;
68989;SDS011;56046;47.270;11.368;2024-01-07T09:33:22;10.97;;;5.50;;
68989;SDS011;56046;47.270;11.368;2024-01-07T09:35:49;8.98;;;4.50;;
68989;SDS011;56046;47.270;11.368;2024-01-07T09:38:14;7.30;;;3.87;;
68989;SDS011;56046;47.270;11.368;2024-01-07T09:40:39;7.90;;;3.92;;
68989;SDS011;56046;47.270;11.368;2024-01-07T09:43:05;7.40;;;3.83;;
68989;SDS011;56046;47.270;11.368;2024-01-07T09:45:31;6.57;;;3.53;;
68989;SDS011;56046;47.270;11.368;2024-01-07T09:47:56;4.90;;;2.70;;
68989;SDS011;56046;47.270;11.368;2024-01-07T09:50:21;5.80;;;2.73;;
68989;SDS011;56046;47.270;11.368;2024-01-07T09:52:47;5.28;;;2.60;;
68989;SDS011;56046;47.270;11.368;2024-01-07T09:55:16;5.35;;;2.50;;
68989;SDS011;56046;47.270;11.368;2024-01-07T09:57:43;5.30;;;2.75;;
68989;SDS011;56046;47.270;11.368;2024-01-07T10:00:09;5.43;;;2.58;;
68989;SDS011;56046;47.270;11.368;2024-01-07T10:02:35;6.33;;;2.93;;
68989;SDS011;56046;47.270;11.368;2024-01-07T10:05:01;5.00;;;2.40;;
68989;SDS011;56046;47.270;11.368;2024-01-07T10:07:26;5.10;;;2.50;;
68989;SDS011;56046;47.270;11.368;2024-01-07T10:09:51;6.33;;;2.30;;
68989;SDS011;56046;47.270;11.368;2024-01-07T10:12:22;5.85;;;2.92;;
68989;SDS011;56046;47.270;11.368;2024-01-07T10:14:47;4.65;;;2.35;;
68989;SDS011;56046;47.270;11.368;2024-01-07T10:17:15;4.23;;;2.17;;
68989;SDS011;56046;47.270;11.368;2024-01-07T10:19:42;5.80;;;2.47;;
68989;SDS011;56046;47.270;11.368;2024-01-07T10:22:08;5.23;;;2.60;;
68989;SDS011;56046;47.270;11.368;2024-01-07T10:24:36;4.53;;;2.40;;
68989;SDS011;56046;47.270;11.368;2024-01-07T10:27:05;5.38;;;2.85;;
68989;SDS011;56046;47.270;11.368;2024-01-07T10:29:31;6.38;;;3.08;;
68989;SDS011;56046;47.270;11.368;2024-01-07T10:31:59;5.70;;;2.83;;
68989;SDS011;56046;47.270;11.368;2024-01-07T10:34:27;5.13;;;2.63;;
68989;SDS011;56046;47.270;11.368;2024-01-07T10:36:54;5.82;;;2.60;;
68989;SDS011;56046;47.270;11.368;2024-01-07T10:39:19;7.40;;;2.87;;
68989;SDS011;56046;47.270;11.368;2024-01-07T10:41:45;6.57;;;2.80;;
68989;SDS011;56046;47.270;11.368;2024-01-07T10:44:11;5.60;;;2.88;;
68989;SDS011;56046;47.270;11.368;2024-01-07T10:46:36;5.70;;;2.60;;
68989;SDS011;56046;47.270;11.368;2024-01-07T10:49:07;6.67;;;2.80;;
68989;SDS011;56046;47.270;11.368;2024-01-07T10:51:34;5.78;;;3.03;;
68989;SDS011;56046;47.270;11.368;2024-01-07T10:54:00;6.07;;;3.10;;
68989;SDS011;56046;47.270;11.368;2024-01-07T10:56:28;5.88;;;3.08;;
68989;SDS011;56046;47.270;11.368;2024-01-07T10:58:55;7.30;;;3.50;;
68989;SDS011;56046;47.270;11.368;2024-01-07T11:01:21;6.05;;;3.10;;
68989;SDS011;56046;47.270;11.368;2024-01-07T11:09:02;5.20;;;2.45;;
68989;SDS011;56046;47.270;11.368;2024-01-07T11:11:40;7.13;;;3.05;;
68989;SDS011;56046;47.270;11.368;2024-01-07T11:16:50;7.80;;;3.83;;
68989;SDS011;56046;47.270;11.368;2024-01-07T11:19:16;7.40;;;3.70;;
68989;SDS011;56046;47.270;11.368;2024-01-07T11:21:45;7.47;;;3.35;;
68989;SDS011;56046;47.270;11.368;2024-01-07T11:24:18;6.87;;;3.93;;
68989;SDS011;56046;47.270;11.368;2024-01-07T11:27:00;6.72;;;3.67;;
68989;SDS011;56046;47.270;11.368;2024-01-07T11:29:26;6.93;;;4.03;;
68989;SDS011;56046;47.270;11.368;2024-01-07T11:31:51;8.30;;;4.30;;
68989;SDS011;56046;47.270;11.368;2024-01-07T11:37:21;6.93;;;3.35;;
68989;SDS011;56046;47.270;11.368;2024-01-07T11:39:47;9.77;;;3.80;;
68989;SDS011;56046;47.270;11.368;2024-01-07T11:42:13;8.73;;;4.40;;
68989;SDS011;56046;47.270;11.368;2024-01-07T11:44:45;7.47;;;4.13;;
68989;SDS011;56046;47.270;11.368;2024-01-07T11:47:10;8.85;;;4.40;;
68989;SDS011;56046;47.270;11.368;2024-01-07T11:49:35;8.93;;;4.40;;
68989;SDS011;56046;47.270;11.368;2024-01-07T11:52:00;6.13;;;3.37;;
68989;SDS011;56046;47.270;11.368;2024-01-07T11:54:27;7.07;;;3.83;;
68989;SDS011;56046;47.270;11.368;2024-01-07T11:56:53;6.80;;;4.00;;
68989;SDS011;56046;47.270;11.368;2024-01-07T11:59:19;7.82;;;3.80;;
68989;SDS011;56046;47.270;11.368;2024-01-07T12:01:44;8.03;;;3.83;;
68989;SDS011;56046;47.270;11.368;2024-01-07T12:04:09;10.97;;;6.47;;
68989;SDS011;56046;47.270;11.368;2024-01-07T12:06:35;17.47;;;10.50;;
68989;SDS011;56046;47.270;11.368;2024-01-07T12:09:00;12.40;;;7.70;;
68989;SDS011;56046;47.270;11.368;2024-01-07T12:11:25;13.77;;;8.57;;
68989;SDS011;56046;47.270;11.368;2024-01-07T12:13:51;9.05;;;5.03;;
68989;SDS011;56046;47.270;11.368;2024-01-07T12:16:16;7.70;;;4.43;;
68989;SDS011;56046;47.270;11.368;2024-01-07T12:18:42;11.13;;;5.57;;
68989;SDS011;56046;47.270;11.368;2024-01-07T12:21:07;20.77;;;9.20;;
68989;SDS011;56046;47.270;11.368;2024-01-07T12:23:36;89.13;;;32.73;;
68989;SDS011;56046;47.270;11.368;2024-01-07T12:26:11;15.57;;;8.02;;
68989;SDS011;56046;47.270;11.368;2024-01-07T12:28:36;11.13;;;6.43;;
68989;SDS011;56046;47.270;11.368;2024-01-07T12:31:02;11.00;;;6.13;;
68989;SDS011;56046;47.270;11.368;2024-01-07T12:33:28;8.10;;;4.90;;
68989;SDS011;56046;47.270;11.368;2024-01-07T12:35:54;11.02;;;6.50;;
68989;SDS011;56046;47.270;11.368;2024-01-07T12:38:26;8.70;;;5.03;;
68989;SDS011;56046;47.270;11.368;2024-01-07T12:40:54;8.20;;;4.40;;
68989;SDS011;56046;47.270;11.368;2024-01-07T12:43:20;8.20;;;4.33;;
68989;SDS011;56046;47.270;11.368;2024-01-07T12:45:45;8.07;;;4.72;;
68989;SDS011;56046;47.270;11.368;2024-01-07T12:48:11;10.10;;;4.40;;
68989;SDS011;56046;47.270;11.368;2024-01-07T12:50:37;8.77;;;5.15;;
68989;SDS011;56046;47.270;11.368;2024-01-07T12:53:02;8.73;;;3.70;;
68989;SDS011;56046;47.270;11.368;2024-01-07T12:55:27;9.47;;;5.30;;
68989;SDS011;56046;47.270;11.368;2024-01-07T12:57:54;7.40;;;4.30;;
68989;SDS011;56046;47.270;11.368;2024-01-07T13:00:20;7.17;;;3.77;;
68989;SDS011;56046;47.270;11.368;2024-01-07T13:02:45;40.00;;;15.73;;
68989;SDS011;56046;47.270;11.368;2024-01-07T13:05:10;14.73;;;6.13;;
68989;SDS011;56046;47.270;11.368;2024-01-07T13:07:35;14.53;;;6.57;;
68989;SDS011;56046;47.270;11.368;2024-01-07T13:10:01;32.23;;;12.07;;
68989;SDS011;56046;47.270;11.368;2024-01-07T13:12:26;34.95;;;16.13;;
68989;SDS011;56046;47.270;11.368;2024-01-07T13:14:52;13.07;;;6.88;;
68989;SDS011;56046;47.270;11.368;2024-01-07T13:17:17;11.70;;;5.77;;
68989;SDS011;56046;47.270;11.368;2024-01-07T13:19:42;9.40;;;5.20;;
68989;SDS011;56046;47.270;11.368;2024-01-07T13:22:08;11.00;;;5.43;;
68989;SDS011;56046;47.270;11.368;2024-01-07T13:24:34;8.93;;;4.17;;
68989;SDS011;56046;47.270;11.368;2024-01-07T13:26:59;19.80;;;8.43;;
68989;SDS011;56046;47.270;11.368;2024-01-07T13:29:24;15.50;;;7.38;;
68989;SDS011;56046;47.270;11.368;2024-01-07T13:31:50;13.23;;;6.47;;
68989;SDS011;56046;47.270;11.368;2024-01-07T13:34:15;11.53;;;5.63;;
68989;SDS011;56046;47.270;11.368;2024-01-07T13:36:40;6.60;;;3.43;;
68989;SDS011;56046;47.270;11.368;2024-01-07T13:39:06;8.17;;;4.30;;
68989;SDS011;56046;47.270;11.368;2024-01-07T13:41:33;6.72;;;3.05;;
68989;SDS011;56046;47.270;11.368;2024-01-07T13:43:58;7.20;;;3.50;;
68989;SDS011;56046;47.270;11.368;2024-01-07T13:46:23;8.93;;;3.83;;
68989;SDS011;56046;47.270;11.368;2024-01-07T13:48:50;6.45;;;3.20;;
68989;SDS011;56046;47.270;11.368;2024-01-07T13:51:15;4.70;;;2.60;;
68989;SDS011;56046;47.270;11.368;2024-01-07T13:53:40;4.43;;;1.97;;
68989;SDS011;56046;47.270;11.368;2024-01-07T13:56:06;5.33;;;2.63;;
68989;SDS011;56046;47.270;11.368;2024-01-07T13:58:32;5.53;;;2.50;;
68989;SDS011;56046;47.270;11.368;2024-01-07T14:00:57;7.10;;;3.27;;
68989;SDS011;56046;47.270;11.368;2024-01-07T14:03:22;5.43;;;2.50;;
68989;SDS011;56046;47.270;11.368;2024-01-07T14:05:48;5.03;;;2.27;;
68989;SDS011;56046;47.270;11.368;2024-01-07T14:08:13;4.83;;;2.23;;
68989;SDS011;56046;47.270;11.368;2024-01-07T14:10:38;7.43;;;3.83;;
68989;SDS011;56046;47.270;11.368;2024-01-07T14:13:04;7.20;;;3.40;;
68989;SDS011;56046;47.270;11.368;2024-01-07T14:15:29;10.77;;;5.07;;
68989;SDS011;56046;47.270;11.368;2024-01-07T14:17:54;6.50;;;3.10;;
68989;SDS011;56046;47.270;11.368;2024-01-07T14:20:19;10.17;;;5.43;;
68989;SDS011;56046;47.270;11.368;2024-01-07T14:22:46;15.95;;;8.48;;
68989;SDS011;56046;47.270;11.368;2024-01-07T14:25:11;18.70;;;9.53;;
68989;SDS011;56046;47.270;11.368;2024-01-07T14:27:38;6.63;;;3.85;;